Pays
Station

 

Conditions  météo  pour  Pakanbaru/Simpangtiga  -  Indonésie    Indonésie

  
28 °C
    
 
 

METAR pour Pakanbaru/Simpangtiga :

WIBB 231600Z 00000KT 6000 FEW017 28/21 Q1010

 

Voici le bulletin pour Pakanbaru/Simpangtiga - Indonésie.
 
Le bulletin a été fait il y a 2 heures et 4 minutes, à 16:00 UTC .
Le vent était calme.
 
La température était de 28 °C, avec un point de rosée à 21 °C.
La température ressentie était de 30 °C.
 
La pression atmosphérique était de 1010 hPa.
L'humidité relative était de 65.8%.
 
Il y avait 1 à 2/8ème de nébulosité à une hauteur de 518 mètres.
 
La visibilité globale était de 6.0 kilomètres.
 

 
 
 

Pays :   A   B   C   D   E   F   G   H   I   J   K   L   M   N   O   P   Q   R   S   T   U   V   W   Y   Z

 

Partenaires :  Info Météo avec Met'info
Météo Marine avec MeteoMarine.net
Infos Site  |  Infos Légales  |  Crédits  |  Confidentialité
Contactez-nous  |  Ajouter aux favoris
© 2013-2019 METAR - Tous droits réservés